LOXAHATCHEE FL US current weather conditions

sailwx.info

Wind from 169 at 4 knots gusting 13

Air temperature 30.0° C
Dewpoint 25.5° C

Last reported at 2020-Jul-10 00:32 UTC.
Time now 2020-Jul-10 02:00 UTC

Location: N 26°29' W 080°26'.
View on Google Maps.

See reports from other nearby stations

  
Tides and Currents Weather Stations Pressure Air Temp Water Temp Dewpoint Dewpoint Depression Visibility Wind Speed Wind Dir Waves Ship Positions
date/time (UTC)wind fromknots sea level pressurealtimeterstation pressurevisibilityair tempwater tempwave heightnotes
2020-Jul-10 00:32 169 4 gusting 13 30.0
2020-Jul-09 23:32 185 2 gusting 6 32.2
2020-Jul-09 22:32 202 2 gusting 9 35.0
2020-Jul-09 21:32 238 5 gusting 11 35.0
2020-Jul-09 20:32 241 3 gusting 13 35.0
2020-Jul-09 19:32 241 5 gusting 12 35.0
2020-Jul-09 18:32 270 6 gusting 13 34.4
2020-Jul-09 17:32 281 5 gusting 10 33.3
2020-Jul-09 16:32 299 5 gusting 11 32.8
2020-Jul-09 15:32 302 5 gusting 11 32.2
2020-Jul-09 14:32 313 6 gusting 11 31.7
2020-Jul-09 13:32 311 6 gusting 9 30.6
2020-Jul-09 12:32 310 4 gusting 6 28.3
2020-Jul-09 11:32 257 1 gusting 2 23.9
2020-Jul-09 10:32 250 2 gusting 3 23.3
2020-Jul-09 09:32 249 2 gusting 3 23.9
2020-Jul-09 08:32 280 0 gusting 3 23.9
2020-Jul-09 07:32 226 1 gusting 4 24.4
2020-Jul-09 06:32 313 2 gusting 6 25.0
2020-Jul-09 05:32 282 4 gusting 6 26.1
2020-Jul-09 04:32 271 2 gusting 4 26.7
2020-Jul-09 03:32 221 2 gusting 4 27.2
2020-Jul-09 02:32 199 2 gusting 3 27.2
2020-Jul-09 01:32 204 0 gusting 1 28.3
2020-Jul-09 00:32 182 0 gusting 2 28.3
2020-Jul-08 23:32 30.0
2020-Jul-08 22:32 291 7 gusting 12 31.1
2020-Jul-08 21:32 178 4 gusting 8 32.8
2020-Jul-08 20:32 181 4 gusting 7 33.3
2020-Jul-08 19:32 289 5 gusting 10 33.9
2020-Jul-08 18:32 313 4 gusting 10 34.4
2020-Jul-08 17:32 287 4 gusting 9 35.0
2020-Jul-08 16:32 284 4 gusting 8 32.8
2020-Jul-08 15:32 244 4 gusting 6 32.8
2020-Jul-08 14:32 216 3 gusting 7 31.7
2020-Jul-08 13:32 198 3 gusting 6 31.1
2020-Jul-08 12:32 188 0 gusting 3 29.4
2020-Jul-08 11:32 25.6
2020-Jul-08 10:32 23.9
2020-Jul-08 09:32 24.4
2020-Jul-08 08:32 072 0 gusting 4 24.4
2020-Jul-08 07:32 239 0 gusting 2 24.4
2020-Jul-08 06:32 314 0 gusting 3 24.4
2020-Jul-08 05:32 25.0
2020-Jul-08 04:32 269 2 gusting 6 25.6
2020-Jul-08 03:32 058 2 gusting 6 25.6
2020-Jul-08 02:32 024 4 gusting 6 25.6